Time;durP1;ratioP1;P1;durP2;ratioP2;P2;SDS_P1;SDS_P2;PMS_P1;PMS_P2;Temp;Humidity;BMP_temperature;BMP_pressure;BME280_temperature;BME280_humidity;BME280_pressure;Samples;Min_cycle;Max_cycle;Signal;HPM_P1;HPM_P2
2023/06/01 00:01:01;;;;;;;10.57;6.00;;;13.70;99.90;;;;;;4177289;28;20355;-59
2023/06/01 00:03:02;;;;;;;7.68;5.65;;;13.60;99.90;;;;;;4177259;28;20025;-60
2023/06/01 00:05:03;;;;;;;11.60;5.90;;;13.60;99.90;;;;;;4177604;28;20045;-59
2023/06/01 00:07:05;;;;;;;10.10;5.50;;;13.60;99.90;;;;;;4176234;28;20065;-61
2023/06/01 00:09:07;;;;;;;9.55;5.60;;;13.60;99.90;;;;;;4177960;28;20095;-59
2023/06/01 00:11:08;;;;;;;10.00;5.67;;;13.60;99.90;;;;;;4176535;28;20444;-59
2023/06/01 00:13:09;;;;;;;8.67;5.60;;;13.60;99.90;;;;;;4179396;28;20534;-59
2023/06/01 00:15:11;;;;;;;11.80;5.80;;;13.70;99.90;;;;;;4179405;28;20037;-65
2023/06/01 00:17:12;;;;;;;8.70;5.80;;;13.70;99.90;;;;;;4180863;28;20064;-61
2023/06/01 00:19:13;;;;;;;8.43;5.40;;;13.70;99.90;;;;;;4179361;28;20091;-60
2023/06/01 00:21:14;;;;;;;12.17;6.20;;;13.70;99.90;;;;;;4180690;28;20036;-60
2023/06/01 00:23:19;;;;;;;13.40;5.77;;;13.70;99.90;;;;;;4179366;28;20029;-59
2023/06/01 00:25:21;;;;;;;11.20;5.87;;;13.70;99.90;;;;;;4180745;28;20063;-60
2023/06/01 00:27:22;;;;;;;10.60;6.17;;;13.70;99.90;;;;;;4178855;28;20029;-59
2023/06/01 00:29:23;;;;;;;11.15;5.93;;;13.70;99.90;;;;;;4180119;28;20033;-62
2023/06/01 00:31:25;;;;;;;9.83;6.27;;;13.80;99.90;;;;;;4179762;28;20025;-60
2023/06/01 00:33:26;;;;;;;10.87;6.63;;;13.80;99.90;;;;;;4180244;28;20025;-60
2023/06/01 00:35:27;;;;;;;13.00;5.93;;;13.80;99.90;;;;;;4179913;28;20547;-59
2023/06/01 00:37:28;;;;;;;8.23;5.43;;;13.80;99.90;;;;;;4178895;28;20041;-61
2023/06/01 00:39:29;;;;;;;10.82;6.10;;;13.80;99.90;;;;;;4180090;28;20045;-59
2023/06/01 00:41:32;;;;;;;8.68;6.28;;;13.80;99.90;;;;;;4179050;28;20529;-62
2023/06/01 00:43:33;;;;;;;8.07;5.83;;;13.80;99.90;;;;;;4180543;28;20435;-60
2023/06/01 00:45:35;;;;;;;12.70;6.80;;;13.80;99.90;;;;;;4178693;28;20037;-58
2023/06/01 00:47:41;;;;;;;17.40;7.80;;;13.60;99.90;;;;;;4180206;28;20378;-60
2023/06/01 00:49:42;;;;;;;12.37;6.70;;;13.60;99.90;;;;;;4178907;28;20041;-60
2023/06/01 00:51:44;;;;;;;13.27;6.80;;;13.50;99.90;;;;;;4180019;28;20365;-60
2023/06/01 00:53:45;;;;;;;9.97;6.33;;;13.40;99.90;;;;;;4179218;28;20381;-59
2023/06/01 00:55:47;;;;;;;14.77;6.83;;;13.30;99.90;;;;;;4180497;28;20028;-57
2023/06/01 00:57:50;;;;;;;13.50;6.63;;;13.30;99.90;;;;;;4178802;28;20134;-60
2023/06/01 00:59:51;;;;;;;10.13;6.47;;;13.20;99.90;;;;;;4180172;28;20025;-60
2023/06/01 01:01:53;;;;;;;10.18;6.65;;;13.20;99.90;;;;;;4179253;28;20095;-59
2023/06/01 01:03:57;;;;;;;14.87;6.50;;;13.20;99.90;;;;;;4179699;28;20086;-61
2023/06/01 01:06:48;;;;;;;13.07;6.27;;;13.20;99.90;;;;;;4179190;28;20037;-60
2023/06/01 01:09:07;;;;;;;12.77;6.40;;;13.20;99.90;;;;;;4180263;28;20415;-59
2023/06/01 01:11:23;;;;;;;9.30;6.77;;;13.20;99.90;;;;;;4178965;28;20487;-60
2023/06/01 01:13:48;;;;;;;10.53;6.80;;;13.20;99.90;;;;;;4179631;28;20496;-60
2023/06/01 01:15:59;;;;;;;9.90;6.67;;;13.20;99.90;;;;;;4178963;28;20158;-59
2023/06/01 01:18:10;;;;;;;23.80;9.27;;;13.20;99.90;;;;;;4179786;28;20090;-60
2023/06/01 01:20:22;;;;;;;11.33;7.13;;;13.20;99.90;;;;;;4178810;28;20376;-60
2023/06/01 01:22:41;;;;;;;10.20;7.57;;;13.20;99.90;;;;;;4180130;28;20431;-59
2023/06/01 01:25:20;;;;;;;8.97;6.53;;;13.30;99.90;;;;;;4178588;28;20811;-60
2023/06/01 01:27:37;;;;;;;16.80;7.90;;;13.30;99.90;;;;;;4179515;28;20374;-58
2023/06/01 01:29:40;;;;;;;13.90;8.07;;;13.30;99.90;;;;;;4178862;28;20037;-59
2023/06/01 01:31:42;;;;;;;12.53;7.50;;;13.30;99.90;;;;;;4179081;28;20079;-60
2023/06/01 01:33:45;;;;;;;15.73;8.53;;;13.30;99.90;;;;;;4179073;28;20465;-60
2023/06/01 01:35:48;;;;;;;10.97;7.53;;;13.40;99.90;;;;;;4179462;28;20017;-61
2023/06/01 01:37:54;;;;;;;14.03;8.37;;;13.30;99.90;;;;;;4178087;28;20373;-59
2023/06/01 01:39:55;;;;;;;9.07;6.13;;;13.30;99.90;;;;;;4179740;28;20036;-60
2023/06/01 01:41:56;;;;;;;10.17;6.67;;;13.30;99.90;;;;;;4178548;28;20121;-60
2023/06/01 01:43:59;;;;;;;9.90;6.13;;;13.30;99.90;;;;;;4179375;28;20366;-60
2023/06/01 01:46:27;;;;;;;8.70;6.37;;;13.30;99.90;;;;;;4178153;28;20045;-61
2023/06/01 01:48:39;;;;;;;10.20;6.37;;;13.30;99.90;;;;;;4151020;28;20041;-63
2023/06/01 01:50:56;;;;;;;10.63;6.83;;;13.40;99.90;;;;;;4178100;28;20562;-61
2023/06/01 01:52:58;;;;;;;16.33;7.20;;;13.40;99.90;;;;;;4179506;28;20055;-63
2023/06/01 01:55:01;;;;;;;9.60;5.90;;;13.40;99.90;;;;;;4178344;28;20029;-60
2023/06/01 01:57:04;;;;;;;9.07;6.00;;;13.30;99.90;;;;;;4179417;28;20025;-64
2023/06/01 01:59:05;;;;;;;13.90;6.00;;;13.30;99.90;;;;;;4178201;28;20060;-63
2023/06/01 02:01:08;;;;;;;9.90;5.70;;;13.30;99.90;;;;;;4179092;28;20527;-59
2023/06/01 02:03:16;;;;;;;9.47;5.90;;;13.30;99.90;;;;;;4178713;28;20029;-61
2023/06/01 02:05:17;;;;;;;11.53;5.33;;;13.30;99.90;;;;;;4179310;28;20354;-62
2023/06/01 02:07:19;;;;;;;10.33;5.57;;;13.30;99.90;;;;;;4178232;28;20025;-61
2023/06/01 02:09:20;;;;;;;9.00;5.23;;;13.20;99.90;;;;;;4178913;28;20505;-62
2023/06/01 02:11:21;;;;;;;8.73;5.07;;;13.30;99.90;;;;;;4177822;28;20029;-62
2023/06/01 02:13:22;;;;;;;9.53;5.70;;;13.20;99.90;;;;;;4179208;28;20021;-64
2023/06/01 02:15:23;;;;;;;8.20;5.73;;;13.20;99.90;;;;;;4177782;28;20017;-60
2023/06/01 02:17:26;;;;;;;7.53;4.77;;;13.10;99.90;;;;;;4178790;28;20033;-62
2023/06/01 02:19:28;;;;;;;6.40;4.83;;;13.10;99.90;;;;;;4177672;28;20095;-60
2023/06/01 02:21:29;;;;;;;6.93;4.90;;;13.00;99.90;;;;;;4178491;28;20029;-60
2023/06/01 02:23:30;;;;;;;8.03;4.80;;;13.00;99.90;;;;;;4176813;28;20078;-64
2023/06/01 02:25:31;;;;;;;6.97;4.83;;;13.10;99.90;;;;;;4171750;28;20034;-59
2023/06/01 02:27:32;;;;;;;9.03;5.20;;;13.10;99.90;;;;;;4162046;28;20080;-58
2023/06/01 02:29:34;;;;;;;8.07;5.50;;;13.10;99.90;;;;;;4161216;28;20029;-58
2023/06/01 02:31:35;;;;;;;12.70;5.40;;;13.20;99.90;;;;;;4162451;28;20089;-59
2023/06/01 02:33:38;;;;;;;7.97;5.70;;;13.20;99.90;;;;;;4161387;28;20037;-60
2023/06/01 02:35:39;;;;;;;10.00;5.93;;;13.20;99.90;;;;;;4161526;28;20095;-59
2023/06/01 02:37:40;;;;;;;7.60;5.40;;;13.20;99.90;;;;;;4166870;28;20451;-61
2023/06/01 02:39:42;;;;;;;7.67;4.60;;;13.20;99.90;;;;;;4178709;28;20095;-59
2023/06/01 02:41:43;;;;;;;8.07;5.00;;;13.20;99.90;;;;;;4177527;28;20021;-60
2023/06/01 02:43:44;;;;;;;9.73;5.20;;;13.20;99.90;;;;;;4178680;28;20086;-61
2023/06/01 02:45:45;;;;;;;5.90;4.60;;;13.20;99.90;;;;;;4177232;28;20036;-60
2023/06/01 02:47:46;;;;;;;6.37;4.70;;;13.20;99.90;;;;;;4178232;28;20111;-62
2023/06/01 02:49:47;;;;;;;7.87;4.70;;;13.30;99.90;;;;;;4177269;28;20064;-63
2023/06/01 02:51:48;;;;;;;7.57;5.07;;;13.30;99.90;;;;;;4178042;28;20037;-59
2023/06/01 02:53:50;;;;;;;9.30;5.90;;;13.40;99.90;;;;;;4177800;28;20087;-61
2023/06/01 02:55:51;;;;;;;8.50;5.10;;;13.50;99.90;;;;;;4177555;28;20029;-60
2023/06/01 02:57:52;;;;;;;6.83;5.07;;;13.50;99.90;;;;;;4178235;28;20046;-61
2023/06/01 02:59:53;;;;;;;10.10;4.67;;;13.70;99.90;;;;;;4176926;28;20476;-60
2023/06/01 03:01:54;;;;;;;10.87;5.17;;;13.70;99.90;;;;;;4178345;28;20068;-60
2023/06/01 03:03:55;;;;;;;10.10;5.40;;;13.90;99.90;;;;;;4177719;28;20075;-61
2023/06/01 03:05:57;;;;;;;9.40;4.95;;;14.00;99.90;;;;;;4178595;28;20075;-62
2023/06/01 03:07:58;;;;;;;12.83;5.30;;;14.10;99.90;;;;;;4177194;28;20439;-63
2023/06/01 03:09:59;;;;;;;8.00;5.27;;;14.20;99.90;;;;;;4178180;28;20476;-61
2023/06/01 03:12:01;;;;;;;13.93;6.80;;;14.40;99.90;;;;;;4177204;28;20075;-60
2023/06/01 03:14:03;;;;;;;8.83;4.80;;;14.50;99.90;;;;;;4178220;28;20021;-59
2023/06/01 03:16:04;;;;;;;9.05;4.50;;;14.70;99.90;;;;;;4176860;28;20470;-60
2023/06/01 03:18:05;;;;;;;8.43;4.70;;;14.90;99.90;;;;;;4177431;28;20049;-59
2023/06/01 03:20:14;;;;;;;5.78;4.20;;;15.10;99.90;;;;;;4177236;28;20083;-59
2023/06/01 03:22:16;;;;;;;7.53;4.45;;;15.30;99.90;;;;;;4178439;28;20037;-60
2023/06/01 03:24:17;;;;;;;8.25;4.35;;;15.50;99.90;;;;;;4175141;28;20073;-61
2023/06/01 03:26:20;;;;;;;9.88;5.22;;;15.80;99.90;;;;;;4177687;28;20025;-60
2023/06/01 03:28:22;;;;;;;8.82;4.90;;;16.00;99.90;;;;;;4177362;28;20075;-60
2023/06/01 03:30:23;;;;;;;5.75;3.88;;;16.30;99.90;;;;;;4176894;28;20110;-60
2023/06/01 03:32:24;;;;;;;9.20;4.30;;;16.60;99.90;;;;;;4177459;28;20033;-62
2023/06/01 03:34:27;;;;;;;6.97;4.45;;;16.90;99.90;;;;;;4177366;28;20430;-61
2023/06/01 03:36:28;;;;;;;9.25;3.83;;;17.10;99.90;;;;;;4177531;28;20099;-61
2023/06/01 03:38:29;;;;;;;7.63;4.28;;;17.40;99.90;;;;;;4176649;28;20103;-62
2023/06/01 03:40:30;;;;;;;7.60;3.72;;;17.70;99.90;;;;;;4178008;28;20033;-61
2023/06/01 03:42:31;;;;;;;5.47;3.70;;;18.00;99.90;;;;;;4176873;28;20029;-61
2023/06/01 03:44:33;;;;;;;7.25;4.32;;;18.10;99.90;;;;;;4177955;28;20480;-61
2023/06/01 03:46:34;;;;;;;7.47;3.13;;;18.30;99.90;;;;;;4176974;28;20028;-60
2023/06/01 03:48:35;;;;;;;6.72;3.40;;;18.70;99.90;;;;;;4179863;28;20037;-59
2023/06/01 03:50:36;;;;;;;5.63;3.05;;;18.90;99.90;;;;;;4180056;28;20041;-60
2023/06/01 03:52:38;;;;;;;5.63;2.85;;;19.00;99.90;;;;;;4181007;28;20109;-61
2023/06/01 03:54:40;;;;;;;5.13;3.38;;;19.20;99.90;;;;;;4180045;28;20477;-61
2023/06/01 03:56:41;;;;;;;8.50;3.28;;;19.60;99.90;;;;;;4180737;28;20098;-60
2023/06/01 03:58:42;;;;;;;4.25;3.00;;;19.90;99.90;;;;;;4179430;28;20052;-63
2023/06/01 04:00:44;;;;;;;5.25;3.28;;;20.10;99.90;;;;;;4180059;28;20095;-60
2023/06/01 04:02:56;;;;;;;6.18;3.38;;;20.20;99.90;;;;;;4180851;28;20013;-61
2023/06/01 04:04:58;;;;;;;8.65;4.13;;;20.30;99.90;;;;;;4179940;28;20094;-61
2023/06/01 04:07:00;;;;;;;4.80;2.97;;;20.70;99.90;;;;;;4180320;28;20025;-61
2023/06/01 04:09:06;;;;;;;5.75;3.00;;;20.90;99.90;;;;;;4180206;28;20100;-64
2023/06/01 04:11:07;;;;;;;6.35;3.97;;;21.10;99.90;;;;;;4180051;28;20025;-61
2023/06/01 04:13:08;;;;;;;3.85;3.03;;;21.40;99.90;;;;;;4179513;28;20033;-61
2023/06/01 04:15:14;;;;;;;6.50;3.03;;;21.60;99.90;;;;;;4180256;28;20462;-60
2023/06/01 04:17:15;;;;;;;7.68;2.90;;;21.80;99.90;;;;;;4179476;28;20083;-61
2023/06/01 04:19:16;;;;;;;6.13;3.45;;;22.10;99.90;;;;;;4180820;28;20044;-60
2023/06/01 04:21:20;;;;;;;5.05;3.10;;;22.10;99.90;;;;;;4179314;28;20029;-60
2023/06/01 04:23:22;;;;;;;5.03;3.30;;;22.00;99.90;;;;;;4180039;28;20448;-59
2023/06/01 04:25:24;;;;;;;9.02;3.45;;;22.00;99.90;;;;;;4179234;28;20033;-60
2023/06/01 04:27:26;;;;;;;6.80;3.22;;;21.90;99.90;;;;;;4180349;28;20049;-59
2023/06/01 04:29:27;;;;;;;6.03;3.72;;;21.80;99.90;;;;;;4179273;28;20396;-66
2023/06/01 04:31:29;;;;;;;6.00;3.25;;;21.90;99.90;;;;;;4180561;28;20055;-60
2023/06/01 04:33:30;;;;;;;6.32;3.10;;;22.20;99.90;;;;;;4179746;28;20443;-68
2023/06/01 04:35:32;;;;;;;6.18;3.20;;;22.30;99.90;;;;;;4180456;28;20427;-61
2023/06/01 04:37:35;;;;;;;5.95;3.13;;;22.70;99.90;;;;;;4178888;28;20057;-63
2023/06/01 04:39:36;;;;;;;5.25;3.08;;;23.00;99.90;;;;;;4179598;28;20044;-62
2023/06/01 04:41:37;;;;;;;6.82;3.38;;;22.80;99.90;;;;;;4179533;28;20025;-60
2023/06/01 04:43:39;;;;;;;4.63;3.38;;;22.60;99.90;;;;;;4179708;28;20419;-61
2023/06/01 04:45:41;;;;;;;5.95;3.70;;;22.60;99.90;;;;;;4179979;28;20017;-60
2023/06/01 04:47:44;;;;;;;5.22;3.17;;;22.80;99.90;;;;;;4179047;28;20059;-60
2023/06/01 04:49:45;;;;;;;6.95;3.10;;;22.80;99.90;;;;;;4180304;28;20094;-60
2023/06/01 04:51:51;;;;;;;5.90;2.92;;;22.90;99.90;;;;;;4178577;28;20119;-62
2023/06/01 04:53:53;;;;;;;3.58;2.90;;;23.40;99.90;;;;;;4180233;28;20025;-63
2023/06/01 04:55:56;;;;;;;7.70;2.92;;;23.90;99.90;;;;;;4179023;28;20130;-61
2023/06/01 04:57:57;;;;;;;5.30;3.05;;;24.20;99.90;;;;;;4179260;28;20437;-62
2023/06/01 04:59:59;;;;;;;4.80;3.05;;;24.50;99.40;;;;;;4178303;28;20033;-60
2023/06/01 05:02:00;;;;;;;5.38;3.25;;;24.80;98.90;;;;;;4180171;28;20075;-61
2023/06/01 05:04:01;;;;;;;5.32;2.92;;;25.10;98.50;;;;;;4179478;28;20366;-61
2023/06/01 05:06:02;;;;;;;5.90;3.35;;;25.40;97.90;;;;;;4179761;28;20102;-59
2023/06/01 05:08:03;;;;;;;8.23;3.45;;;25.70;97.50;;;;;;4178208;28;20099;-60
2023/06/01 05:10:09;;;;;;;4.05;3.42;;;25.70;97.10;;;;;;4180073;28;20047;-60
2023/06/01 05:12:11;;;;;;;7.55;4.00;;;25.70;96.60;;;;;;4178590;28;20386;-60
2023/06/01 05:14:12;;;;;;;7.35;3.42;;;25.70;96.70;;;;;;4178997;28;20891;-61
2023/06/01 05:16:13;;;;;;;8.02;3.20;;;25.80;96.50;;;;;;4178859;28;20029;-60
2023/06/01 05:18:14;;;;;;;6.45;3.40;;;25.80;96.40;;;;;;4178598;28;20053;-61
2023/06/01 05:20:15;;;;;;;7.43;3.15;;;26.10;95.90;;;;;;4178824;28;20041;-68
2023/06/01 05:22:16;;;;;;;6.55;3.10;;;26.20;95.50;;;;;;4176692;28;20044;-64
2023/06/01 05:24:18;;;;;;;6.75;2.95;;;26.20;95.30;;;;;;4177383;28;20091;-60
2023/06/01 05:26:22;;;;;;;8.30;3.85;;;26.30;95.20;;;;;;4177671;28;20044;-60
2023/06/01 05:28:24;;;;;;;10.43;3.00;;;26.70;94.90;;;;;;4178800;28;20083;-60
2023/06/01 05:30:25;;;;;;;5.82;3.28;;;27.00;94.50;;;;;;4176728;28;20078;-60
2023/06/01 05:32:26;;;;;;;7.30;3.47;;;27.30;94.10;;;;;;4173881;28;20456;-63
2023/06/01 05:34:27;;;;;;;4.85;3.08;;;27.40;93.60;;;;;;4178214;28;20249;-63
2023/06/01 05:36:28;;;;;;;5.90;3.28;;;27.50;93.40;;;;;;4177335;28;20045;-61
2023/06/01 05:38:29;;;;;;;4.35;3.47;;;27.50;93.00;;;;;;4172067;28;20038;-61
2023/06/01 05:40:30;;;;;;;10.82;3.53;;;27.40;92.80;;;;;;4177628;28;20044;-60
2023/06/01 05:42:31;;;;;;;5.55;3.53;;;27.60;92.80;;;;;;4164610;28;20559;-60
2023/06/01 05:44:33;;;;;;;4.07;2.92;;;27.90;92.30;;;;;;4178220;28;20075;-66
2023/06/01 05:46:34;;;;;;;6.93;3.47;;;27.60;91.90;;;;;;4176070;28;20193;-61
2023/06/01 05:48:35;;;;;;;4.13;3.30;;;27.50;91.90;;;;;;4161839;28;20063;-62
2023/06/01 05:50:36;;;;;;;4.03;3.33;;;27.40;91.80;;;;;;4174404;28;20029;-60
2023/06/01 05:52:38;;;;;;;4.53;3.08;;;27.40;91.70;;;;;;4177851;28;20045;-60
2023/06/01 05:54:39;;;;;;;6.07;3.22;;;27.40;91.70;;;;;;4178171;28;20435;-60
2023/06/01 05:56:40;;;;;;;6.20;2.95;;;27.40;91.70;;;;;;4177817;28;20029;-69
2023/06/01 05:58:42;;;;;;;10.13;3.60;;;27.80;91.30;;;;;;4177673;28;20447;-62
2023/06/01 06:00:43;;;;;;;7.50;3.17;;;28.00;91.00;;;;;;4177553;28;20100;-60
2023/06/01 06:02:44;;;;;;;7.00;3.35;;;28.50;90.60;;;;;;4177830;28;20045;-62
2023/06/01 06:04:45;;;;;;;4.57;2.75;;;28.40;90.20;;;;;;4177954;28;20029;-64
2023/06/01 06:06:46;;;;;;;5.70;3.03;;;28.30;90.10;;;;;;4178941;28;20029;-63
2023/06/01 06:08:48;;;;;;;6.65;3.60;;;28.40;89.60;;;;;;4177522;28;20040;-61
2023/06/01 06:10:49;;;;;;;13.43;4.15;;;28.60;89.00;;;;;;4177014;28;20049;-61
2023/06/01 06:12:51;;;;;;;15.48;4.70;;;28.30;88.40;;;;;;4177893;28;20063;-62
2023/06/01 06:14:52;;;;;;;15.93;4.40;;;27.60;89.00;;;;;;4179014;28;20024;-62
2023/06/01 06:16:53;;;;;;;17.83;5.65;;;27.10;89.90;;;;;;4174617;28;20053;-63
2023/06/01 06:18:54;;;;;;;19.20;6.05;;;26.80;90.20;;;;;;4174349;28;20477;-64
2023/06/01 06:20:55;;;;;;;24.95;6.47;;;26.40;90.50;;;;;;4176435;28;20515;-61
2023/06/01 06:22:56;;;;;;;19.17;5.53;;;26.00;90.80;;;;;;4178369;28;20036;-71
2023/06/01 06:24:57;;;;;;;20.73;5.70;;;26.10;91.10;;;;;;4177469;28;20094;-66
2023/06/01 06:26:58;;;;;;;28.92;6.85;;;26.30;91.00;;;;;;4177736;28;20033;-63
2023/06/01 06:28:59;;;;;;;19.45;4.78;;;26.80;91.00;;;;;;4177847;28;20046;-62
2023/06/01 06:31:01;;;;;;;14.80;4.70;;;26.60;90.90;;;;;;4177528;28;20511;-63
2023/06/01 06:33:02;;;;;;;12.85;5.10;;;26.80;91.00;;;;;;4177903;28;20029;-62
2023/06/01 06:35:03;;;;;;;15.68;4.88;;;27.20;91.00;;;;;;4177511;28;20041;-61
2023/06/01 06:37:06;;;;;;;13.00;4.80;;;27.30;90.90;;;;;;4177922;28;20084;-60
2023/06/01 06:39:07;;;;;;;13.68;4.72;;;26.70;90.90;;;;;;4176833;28;20053;-61
2023/06/01 06:41:08;;;;;;;17.45;4.68;;;26.00;91.40;;;;;;4178401;28;20103;-64
2023/06/01 06:43:09;;;;;;;10.15;4.45;;;25.60;91.90;;;;;;4176742;28;20120;-62
2023/06/01 06:45:10;;;;;;;13.18;4.63;;;25.70;92.20;;;;;;4178706;28;20449;-64
2023/06/01 06:47:15;;;;;;;14.27;4.65;;;25.40;92.20;;;;;;4177330;28;20412;-61
2023/06/01 06:49:18;;;;;;;9.63;5.13;;;25.10;92.60;;;;;;4178507;28;20020;-64
2023/06/01 06:51:19;;;;;;;13.95;4.35;;;25.00;92.90;;;;;;4177196;28;20419;-61
2023/06/01 06:53:20;;;;;;;8.98;4.20;;;25.30;93.00;;;;;;4178664;28;20465;-61
2023/06/01 06:55:22;;;;;;;6.15;3.50;;;25.90;92.90;;;;;;4177074;28;20434;-58
2023/06/01 06:57:23;;;;;;;6.30;4.20;;;26.50;92.60;;;;;;4177486;28;20553;-61
2023/06/01 06:59:24;;;;;;;4.65;3.47;;;26.70;92.30;;;;;;4177488;28;20033;-60
2023/06/01 07:01:25;;;;;;;10.73;3.83;;;26.50;92.20;;;;;;4177089;28;20500;-61
2023/06/01 07:03:26;;;;;;;11.38;4.55;;;26.30;92.20;;;;;;4171564;28;20045;-61
2023/06/01 07:05:28;;;;;;;6.30;3.53;;;26.40;92.40;;;;;;4170830;28;20025;-62
2023/06/01 07:07:29;;;;;;;7.00;4.63;;;26.30;92.50;;;;;;4177043;28;20037;-59
2023/06/01 07:09:30;;;;;;;5.15;3.88;;;26.50;92.60;;;;;;4176983;28;20086;-61
2023/06/01 07:11:31;;;;;;;10.38;6.05;;;26.20;92.30;;;;;;4177654;28;20111;-61
2023/06/01 07:13:32;;;;;;;10.77;4.47;;;25.80;92.80;;;;;;4176926;28;20079;-67
2023/06/01 07:15:33;;;;;;;4.38;3.53;;;26.00;93.00;;;;;;4176751;28;20087;-64
2023/06/01 07:17:35;;;;;;;6.38;3.80;;;26.50;92.80;;;;;;4176014;28;20045;-61
2023/06/01 07:19:36;;;;;;;15.32;6.38;;;26.80;92.80;;;;;;4176158;28;20080;-61
2023/06/01 07:21:38;;;;;;;19.60;8.02;;;26.80;92.70;;;;;;4176036;28;21420;-61
2023/06/01 07:23:42;;;;;;;5.18;3.53;;;26.60;92.70;;;;;;4163940;28;20037;-61
2023/06/01 07:25:43;;;;;;;6.93;5.28;;;26.20;92.70;;;;;;4167823;28;20029;-60
2023/06/01 07:27:45;;;;;;;5.72;4.22;;;25.80;93.10;;;;;;4175862;28;20554;-61
2023/06/01 07:29:47;;;;;;;6.45;3.80;;;25.60;93.40;;;;;;4176156;28;20029;-63
2023/06/01 07:31:51;;;;;;;9.18;3.90;;;25.60;93.40;;;;;;4176618;28;20428;-61
2023/06/01 07:33:52;;;;;;;5.97;4.25;;;25.60;93.50;;;;;;4177080;28;20122;-61
2023/06/01 07:35:54;;;;;;;7.03;4.30;;;25.20;93.50;;;;;;4175556;28;20102;-59
2023/06/01 07:37:55;;;;;;;9.38;4.72;;;25.20;93.60;;;;;;4176298;28;20102;-65
2023/06/01 07:39:56;;;;;;;7.40;3.90;;;25.10;93.90;;;;;;4175334;28;20049;-61
2023/06/01 07:41:57;;;;;;;10.60;4.75;;;25.40;93.90;;;;;;4176912;28;20041;-60
2023/06/01 07:43:59;;;;;;;7.75;4.90;;;25.70;93.90;;;;;;4176316;28;20045;-62
2023/06/01 07:46:00;;;;;;;8.30;4.22;;;25.60;94.00;;;;;;4174990;28;20071;-64
2023/06/01 07:48:01;;;;;;;12.05;4.25;;;25.50;94.20;;;;;;4174191;28;20044;-62
2023/06/01 07:50:03;;;;;;;13.68;4.07;;;25.60;94.30;;;;;;4177111;28;20033;-63
2023/06/01 07:52:05;;;;;;;8.88;4.47;;;25.60;94.40;;;;;;4176039;28;20052;-60
2023/06/01 07:54:07;;;;;;;7.15;4.20;;;25.60;94.50;;;;;;4177057;28;20093;-61
2023/06/01 07:56:09;;;;;;;5.75;3.70;;;25.40;94.60;;;;;;4175684;28;20036;-65
2023/06/01 07:58:10;;;;;;;7.20;3.92;;;24.80;94.90;;;;;;4176460;28;20033;-72
2023/06/01 08:00:12;;;;;;;5.50;3.25;;;24.80;95.30;;;;;;4175915;28;20041;-66
2023/06/01 08:02:13;;;;;;;8.27;3.70;;;24.80;95.50;;;;;;4176805;28;20055;-63
2023/06/01 08:04:14;;;;;;;5.70;4.00;;;24.70;95.60;;;;;;4160867;28;20095;-61
2023/06/01 08:06:15;;;;;;;4.65;3.38;;;24.70;95.70;;;;;;4164571;28;20110;-61
2023/06/01 08:08:17;;;;;;;4.22;3.30;;;24.80;95.70;;;;;;4176745;28;20048;-61
2023/06/01 08:10:18;;;;;;;3.45;3.15;;;24.70;95.50;;;;;;4175460;28;20114;-62
2023/06/01 08:12:19;;;;;;;4.80;3.50;;;25.20;95.40;;;;;;4177087;28;20040;-63
2023/06/01 08:14:20;;;;;;;6.13;3.55;;;25.70;94.80;;;;;;4175727;28;20570;-69
2023/06/01 08:16:21;;;;;;;7.20;4.47;;;25.50;94.80;;;;;;4177529;28;20029;-62
2023/06/01 08:18:23;;;;;;;5.20;3.92;;;25.10;95.30;;;;;;4176173;28;20029;-64
2023/06/01 08:20:26;;;;;;;4.13;3.55;;;25.10;95.40;;;;;;4170193;28;20068;-63
2023/06/01 08:22:28;;;;;;;5.25;3.80;;;24.60;95.60;;;;;;4176237;28;20534;-71
2023/06/01 08:24:32;;;;;;;7.57;3.97;;;24.30;95.90;;;;;;4177316;28;20025;-63
2023/06/01 08:26:33;;;;;;;7.30;3.40;;;24.10;96.30;;;;;;4163318;28;20018;-63
2023/06/01 08:28:34;;;;;;;5.47;2.72;;;24.00;95.80;;;;;;4171374;28;20041;-63
2023/06/01 08:30:35;;;;;;;3.90;2.88;;;24.00;95.60;;;;;;4175616;28;20094;-63
2023/06/01 08:32:37;;;;;;;4.35;2.88;;;24.30;95.30;;;;;;4176697;28;20090;-62
2023/06/01 08:34:39;;;;;;;4.88;3.63;;;24.50;94.90;;;;;;4178358;28;20565;-69
2023/06/01 08:36:40;;;;;;;7.65;3.95;;;24.70;94.80;;;;;;4179412;28;20041;-65
2023/06/01 08:38:41;;;;;;;6.82;3.38;;;24.70;95.00;;;;;;4179024;28;20060;-62
2023/06/01 08:40:43;;;;;;;4.45;3.30;;;24.60;95.20;;;;;;4178796;28;20488;-62
2023/06/01 08:43:13;;;;;;;3.53;3.10;;;24.70;95.10;;;;;;4179558;28;20033;-62
2023/06/01 08:45:14;;;;;;;6.80;3.08;;;24.60;94.70;;;;;;4178429;28;20029;-62
2023/06/01 08:47:17;;;;;;;4.07;2.60;;;24.50;94.90;;;;;;4178928;28;20021;-61
2023/06/01 08:49:21;;;;;;;6.50;3.50;;;24.70;94.90;;;;;;4178365;28;20190;-62
2023/06/01 08:51:23;;;;;;;4.03;3.08;;;24.90;95.00;;;;;;4178732;28;20041;-60
2023/06/01 08:53:28;;;;;;;8.45;3.22;;;24.90;94.00;;;;;;4178169;28;20367;-60
2023/06/01 08:55:29;;;;;;;3.10;2.58;;;24.70;93.40;;;;;;4170750;28;20040;-67
2023/06/01 08:57:31;;;;;;;5.38;2.88;;;24.80;93.20;;;;;;4178758;28;20106;-60
2023/06/01 08:59:33;;;;;;;4.97;2.53;;;24.70;92.80;;;;;;4179717;28;20037;-60
2023/06/01 09:01:34;;;;;;;3.30;3.00;;;24.60;92.60;;;;;;4178665;28;20074;-61
2023/06/01 09:03:35;;;;;;;4.93;2.53;;;24.50;92.80;;;;;;4179496;28;20025;-60
2023/06/01 09:05:37;;;;;;;7.47;2.85;;;24.70;93.00;;;;;;4178221;28;20037;-61
2023/06/01 09:07:38;;;;;;;2.88;2.25;;;25.00;92.80;;;;;;4179693;28;20358;-60
2023/06/01 09:09:40;;;;;;;3.45;2.47;;;25.20;92.30;;;;;;4174645;28;20091;-60
2023/06/01 09:11:41;;;;;;;3.13;2.35;;;25.20;92.00;;;;;;4163173;28;20033;-58
2023/06/01 09:13:42;;;;;;;4.88;3.42;;;25.10;91.50;;;;;;4161444;28;20087;-62
2023/06/01 09:15:52;;;;;;;2.53;2.30;;;24.90;91.40;;;;;;4162822;28;20393;-61
2023/06/01 09:18:10;;;;;;;2.90;2.28;;;24.80;90.40;;;;;;4162734;28;20083;-61
2023/06/01 09:20:24;;;;;;;4.32;2.45;;;25.00;90.80;;;;;;4162617;28;20441;-61
2023/06/01 09:22:38;;;;;;;3.55;2.08;;;25.20;90.30;;;;;;4159917;28;20037;-61
2023/06/01 09:24:42;;;;;;;3.55;2.58;;;25.30;90.70;;;;;;4162481;28;20025;-61
2023/06/01 09:26:48;;;;;;;4.72;2.30;;;25.40;90.50;;;;;;4161986;28;20084;-61
2023/06/01 09:28:52;;;;;;;2.67;2.28;;;25.30;90.20;;;;;;4162565;28;20056;-71
2023/06/01 09:30:53;;;;;;;5.18;2.28;;;25.20;90.00;;;;;;4161535;28;20662;-57
2023/06/01 09:33:12;;;;;;;6.53;2.60;;;25.00;89.90;;;;;;4161744;28;20424;-64
2023/06/01 09:35:14;;;;;;;3.67;2.67;;;24.90;88.80;;;;;;4161883;28;20029;-60
2023/06/01 09:37:16;;;;;;;3.25;2.42;;;24.80;89.90;;;;;;4162192;28;20049;-66
2023/06/01 09:39:20;;;;;;;3.58;2.45;;;24.70;90.00;;;;;;4162290;28;20079;-70
2023/06/01 09:41:22;;;;;;;4.25;2.58;;;24.80;90.40;;;;;;4162373;28;20103;-63
2023/06/01 09:43:25;;;;;;;5.57;3.08;;;24.80;90.40;;;;;;4162028;28;20033;-65
2023/06/01 09:45:26;;;;;;;9.05;4.57;;;25.00;90.60;;;;;;4161320;28;20045;-68
2023/06/01 09:47:28;;;;;;;2.67;2.25;;;25.00;90.40;;;;;;4162386;28;20079;-61
2023/06/01 09:49:32;;;;;;;4.72;2.75;;;25.30;90.40;;;;;;4161341;28;20049;-60
2023/06/01 09:51:33;;;;;;;5.82;2.55;;;25.50;90.20;;;;;;4162530;28;20025;-68
2023/06/01 09:53:41;;;;;;;3.95;2.67;;;25.70;90.00;;;;;;4161168;28;20115;-65
2023/06/01 09:56:00;;;;;;;2.83;2.20;;;25.80;89.50;;;;;;4162553;28;20026;-65
2023/06/01 09:58:20;;;;;;;3.95;2.47;;;26.00;89.40;;;;;;4161428;28;20029;-69
2023/06/01 10:00:26;;;;;;;4.55;2.67;;;26.30;87.90;;;;;;4162031;28;20107;-61
2023/06/01 10:02:31;;;;;;;3.58;2.55;;;25.90;87.60;;;;;;4160920;28;20037;-61
2023/06/01 10:04:37;;;;;;;3.78;2.35;;;26.00;87.40;;;;;;4162504;28;20371;-67
2023/06/01 10:06:40;;;;;;;4.00;2.58;;;26.00;87.50;;;;;;4161011;28;20103;-69
2023/06/01 10:08:42;;;;;;;5.90;2.40;;;25.90;87.80;;;;;;4162144;28;20071;-70
2023/06/01 10:10:45;;;;;;;3.70;2.63;;;26.00;88.30;;;;;;4161177;28;20034;-66
2023/06/01 10:12:46;;;;;;;6.35;2.47;;;26.00;88.90;;;;;;4162072;28;20021;-61
2023/06/01 10:14:49;;;;;;;5.50;2.80;;;26.00;89.30;;;;;;4160611;28;20485;-67
2023/06/01 10:16:52;;;;;;;4.93;2.90;;;26.10;89.10;;;;;;4162174;28;20042;-65
2023/06/01 10:18:55;;;;;;;4.90;2.50;;;26.20;88.90;;;;;;4160679;28;20038;-66
2023/06/01 10:20:56;;;;;;;3.22;2.25;;;26.00;88.70;;;;;;4162169;28;20037;-59
2023/06/01 10:22:58;;;;;;;5.63;2.58;;;25.80;88.80;;;;;;4160937;28;20033;-69
2023/06/01 10:25:00;;;;;;;2.58;2.38;;;25.80;89.00;;;;;;4161837;28;20033;-64
2023/06/01 10:27:21;;;;;;;4.30;2.30;;;25.90;88.70;;;;;;4160579;28;20038;-60
2023/06/01 10:29:23;;;;;;;5.07;2.50;;;25.60;87.90;;;;;;4160029;28;20441;-68
2023/06/01 10:31:34;;;;;;;4.63;3.28;;;25.40;87.90;;;;;;4160581;28;20495;-60
2023/06/01 10:33:55;;;;;;;4.00;2.70;;;25.30;87.40;;;;;;4161634;28;20119;-64
2023/06/01 10:35:56;;;;;;;4.22;3.03;;;25.20;87.40;;;;;;4160746;28;20428;-66
2023/06/01 10:38:06;;;;;;;9.38;4.40;;;25.30;87.80;;;;;;4161884;28;20042;-61